Time;durP1;ratioP1;P1;durP2;ratioP2;P2;SDS_P1;SDS_P2;PMS_P1;PMS_P2;Temp;Humidity;BMP_temperature;BMP_pressure;BME280_temperature;BME280_humidity;BME280_pressure;Samples;Min_cycle;Max_cycle;Signal;HPM_P1;HPM_P2
2022/07/19 00:00:31;;;;;;;7.28;2.65;;;;;;;18.82;67.39;101252.28;6025008;28;20042;-65
2022/07/19 00:03:27;;;;;;;5.50;2.50;;;;;;;18.24;67.14;101255.72;6017568;28;20039;-65
2022/07/19 00:06:22;;;;;;;5.78;2.60;;;;;;;17.98;68.24;101247.25;6025520;28;20039;-65
2022/07/19 00:09:17;;;;;;;5.03;2.33;;;;;;;18.08;68.15;101244.31;6017997;28;20110;-65
2022/07/19 00:12:13;;;;;;;9.83;2.70;;;;;;;18.19;67.97;101235.81;6019924;28;20100;-66
2022/07/19 00:15:11;;;;;;;7.90;2.65;;;;;;;17.90;68.22;101250.00;6018709;28;20026;-66
2022/07/19 00:18:06;;;;;;;7.25;2.30;;;;;;;17.49;69.65;101252.13;6017895;28;20500;-66
2022/07/19 00:21:01;;;;;;;8.43;2.97;;;;;;;17.76;69.56;101248.94;6025602;28;20030;-66
2022/07/19 00:23:57;;;;;;;6.83;2.10;;;;;;;18.12;69.58;101253.66;6021385;28;20100;-64
2022/07/19 00:26:52;;;;;;;10.07;2.70;;;;;;;18.08;69.43;101244.31;6025037;28;20113;-65
2022/07/19 00:29:47;;;;;;;6.60;2.27;;;;;;;18.35;69.24;101249.06;6025157;28;20042;-65
2022/07/19 00:32:43;;;;;;;8.73;2.38;;;;;;;18.41;68.79;101248.34;6015218;28;20035;-65
2022/07/19 00:35:38;;;;;;;5.30;2.38;;;;;;;18.51;68.45;101259.69;6016160;28;20045;-65
2022/07/19 00:38:34;;;;;;;5.28;2.33;;;;;;;18.38;69.09;101248.72;6017330;28;20284;-66
2022/07/19 00:41:29;;;;;;;5.73;2.07;;;;;;;18.51;68.54;101253.50;6018773;28;20122;-65
2022/07/19 00:44:24;;;;;;;6.97;2.83;;;;;;;18.57;67.77;101237.44;6019217;28;20038;-65
2022/07/19 00:47:20;;;;;;;7.57;2.33;;;;;;;18.60;66.57;101247.00;6015285;28;20429;-66
2022/07/19 00:50:15;;;;;;;5.65;2.47;;;;;;;18.34;67.61;101240.19;6025292;28;20034;-65
2022/07/19 00:53:11;;;;;;;7.10;2.92;;;;;;;18.24;67.92;101253.03;6009113;28;20126;-65
2022/07/19 00:56:08;;;;;;;8.20;2.50;;;;;;;18.16;67.51;101249.59;6020459;28;20138;-64
2022/07/19 00:59:04;;;;;;;8.27;2.35;;;;;;;17.90;68.24;101251.84;6017995;28;20030;-66
2022/07/19 01:02:00;;;;;;;4.63;2.40;;;;;;;17.76;69.13;101237.38;6019671;28;20455;-66
2022/07/19 01:04:55;;;;;;;5.70;2.30;;;;;;;17.64;69.14;101261.09;6014813;28;20042;-66
2022/07/19 01:07:51;;;;;;;4.97;2.40;;;;;;;17.45;69.83;101256.16;6017844;28;20050;-65
2022/07/19 01:10:46;;;;;;;5.63;2.67;;;;;;;17.53;70.19;101250.75;6020004;28;20030;-66
2022/07/19 01:13:42;;;;;;;5.67;2.53;;;;;;;17.51;69.70;101259.97;6010824;28;20038;-66
2022/07/19 01:16:43;;;;;;;5.38;2.58;;;;;;;17.15;70.94;101259.66;6019013;28;20285;-66
2022/07/19 01:19:38;;;;;;;8.13;2.60;;;;;;;17.15;70.97;101249.78;6027626;28;20045;-65
2022/07/19 01:22:33;;;;;;;8.40;2.50;;;;;;;16.91;71.52;101246.38;6020635;28;20046;-65
2022/07/19 01:25:34;;;;;;;5.53;2.37;;;;;;;16.51;72.94;101258.88;6026569;28;20398;-66
2022/07/19 01:28:30;;;;;;;8.07;2.97;;;;;;;16.36;73.50;101252.53;6019020;28;20117;-65
2022/07/19 01:31:25;;;;;;;4.37;2.23;;;;;;;16.13;74.89;101245.38;6022840;28;20034;-66
2022/07/19 01:34:20;;;;;;;5.17;2.50;;;;;;;16.45;73.77;101251.53;6024813;28;20031;-65
2022/07/19 01:37:15;;;;;;;9.23;2.70;;;;;;;16.40;73.87;101248.53;6028645;28;20043;-65
2022/07/19 01:40:13;;;;;;;8.10;2.63;;;;;;;16.46;74.01;101257.72;6028025;28;20044;-67
2022/07/19 01:43:08;;;;;;;5.53;2.42;;;;;;;16.53;73.62;101248.88;6016612;28;20038;-65
2022/07/19 01:46:04;;;;;;;8.73;2.67;;;;;;;16.71;72.45;101245.97;6028970;28;20045;-66
2022/07/19 01:48:59;;;;;;;6.00;2.50;;;;;;;16.77;72.51;101255.97;6013285;28;20098;-66
2022/07/19 01:51:54;;;;;;;7.90;2.67;;;;;;;16.94;71.41;101246.88;6027162;28;20050;-65
2022/07/19 01:54:49;;;;;;;6.33;2.60;;;;;;;16.88;71.52;101246.72;6027812;28;20038;-67
2022/07/19 01:57:45;;;;;;;8.30;2.40;;;;;;;16.81;71.84;101246.59;6025396;28;20397;-66
2022/07/19 02:00:41;;;;;;;4.25;2.22;;;;;;;16.83;73.18;101257.13;6026975;28;20150;-65
2022/07/19 02:03:36;;;;;;;6.38;2.50;;;;;;;17.19;72.41;101258.31;6026166;28;20494;-66
2022/07/19 02:06:31;;;;;;;5.03;2.57;;;;;;;17.49;71.05;101249.44;6022771;28;20034;-66
2022/07/19 02:09:27;;;;;;;8.63;2.67;;;;;;;17.41;71.36;101246.81;6018429;28;20804;-65
2022/07/19 02:12:22;;;;;;;6.73;2.40;;;;;;;17.45;71.44;101249.97;6027250;28;20038;-66
2022/07/19 02:15:17;;;;;;;4.97;2.67;;;;;;;17.55;71.23;101251.44;6025443;28;20034;-65
2022/07/19 02:18:14;;;;;;;5.80;2.47;;;;;;;17.51;71.02;101239.34;6022331;28;20379;-66
2022/07/19 02:21:09;;;;;;;5.63;2.42;;;;;;;17.34;70.91;101256.56;6023055;28;20108;-65
2022/07/19 02:24:06;;;;;;;8.10;2.67;;;;;;;16.82;71.27;101236.72;6025889;28;20539;-66
2022/07/19 02:27:01;;;;;;;9.05;2.45;;;;;;;16.46;72.68;101263.94;6023581;28;20293;-67
2022/07/19 02:29:57;;;;;;;4.10;2.47;;;;;;;16.20;74.02;101263.28;6023485;28;20471;-65
2022/07/19 02:32:52;;;;;;;5.60;2.30;;;;;;;16.50;74.50;101253.69;6021451;28;20113;-65
2022/07/19 02:35:47;;;;;;;6.60;2.37;;;;;;;16.71;72.43;101256.69;6020719;28;20030;-64
2022/07/19 02:38:43;;;;;;;9.30;2.70;;;;;;;16.45;72.57;101256.88;6024361;28;20084;-65
2022/07/19 02:41:39;;;;;;;4.95;2.40;;;;;;;16.39;72.81;101257.56;6023621;28;20085;-65
2022/07/19 02:44:34;;;;;;;5.33;2.27;;;;;;;15.93;73.68;101263.63;6024680;28;20498;-65
2022/07/19 02:47:29;;;;;;;5.00;2.60;;;;;;;15.94;73.89;101254.59;6027746;28;20278;-65
2022/07/19 02:50:25;;;;;;;7.72;2.42;;;;;;;15.59;75.04;101268.28;6027046;28;20030;-66
2022/07/19 02:53:20;;;;;;;5.07;2.73;;;;;;;15.41;76.51;101268.38;6023387;28;20042;-65
2022/07/19 02:56:15;;;;;;;4.87;2.30;;;;;;;15.09;77.47;101271.78;6023519;28;20332;-66
2022/07/19 02:59:10;;;;;;;7.30;2.80;;;;;;;14.79;78.47;101270.50;6021088;28;20042;-67
2022/07/19 03:02:06;;;;;;;10.07;2.77;;;;;;;14.76;79.92;101268.13;6026534;28;20496;-66
2022/07/19 03:05:01;;;;;;;6.67;2.47;;;;;;;15.07;78.65;101260.44;6027247;28;20030;-66
2022/07/19 03:07:57;;;;;;;5.82;2.10;;;;;;;15.36;77.06;101268.03;6016979;28;20619;-66
2022/07/19 03:10:52;;;;;;;5.90;2.40;;;;;;;15.32;76.43;101267.53;6024556;28;20026;-67
2022/07/19 03:13:47;;;;;;;4.47;2.13;;;;;;;15.06;78.05;101265.91;6022632;28;20274;-65
2022/07/19 03:16:43;;;;;;;4.43;2.33;;;;;;;15.27;77.38;101263.69;6025720;28;20466;-66
2022/07/19 03:19:38;;;;;;;3.60;2.10;;;;;;;15.21;76.95;101262.50;6027079;28;20026;-67
2022/07/19 03:22:33;;;;;;;7.87;2.93;;;;;;;15.27;77.14;101264.50;6026229;28;20046;-66
2022/07/19 03:25:28;;;;;;;6.20;2.37;;;;;;;15.75;78.41;101265.63;6026985;28;20026;-66
2022/07/19 03:28:24;;;;;;;5.53;2.33;;;;;;;16.12;76.84;101249.91;6023264;28;20038;-66
2022/07/19 03:31:19;;;;;;;4.77;2.30;;;;;;;15.87;74.37;101249.06;6025383;28;20525;-66
2022/07/19 03:34:14;;;;;;;6.20;2.27;;;;;;;15.53;76.50;101272.44;6009463;28;20038;-66
2022/07/19 03:37:10;;;;;;;5.22;3.05;;;;;;;15.59;76.78;101265.59;6019152;28;20058;-66
2022/07/19 03:40:07;;;;;;;25.20;12.70;;;;;;;15.72;75.69;101256.09;6019655;28;20042;-65
2022/07/19 03:43:02;;;;;;;8.20;2.70;;;;;;;15.68;76.24;101272.66;6024107;28;20501;-65
2022/07/19 03:45:57;;;;;;;4.53;2.20;;;;;;;16.17;76.47;101262.78;6025932;28;20035;-67
2022/07/19 03:48:52;;;;;;;5.00;2.87;;;;;;;16.28;75.94;101263.25;6011632;28;20479;-65
2022/07/19 03:51:48;;;;;;;6.53;2.83;;;;;;;16.64;74.34;101271.75;6017722;28;20042;-65
2022/07/19 03:54:43;;;;;;;6.03;2.40;;;;;;;16.40;73.63;101258.41;6024889;28;20161;-65
2022/07/19 03:57:39;;;;;;;6.70;3.07;;;;;;;16.56;74.88;101269.09;6020134;28;20030;-65
2022/07/19 04:00:34;;;;;;;9.45;3.75;;;;;;;16.73;75.20;101269.91;6015690;28;20030;-66
2022/07/19 04:03:29;;;;;;;12.63;4.90;;;;;;;16.88;72.52;101274.38;6023365;28;20042;-66
2022/07/19 04:06:24;;;;;;;13.87;4.83;;;;;;;17.10;72.32;101264.72;6024837;28;20101;-64
2022/07/19 04:09:20;;;;;;;17.77;5.87;;;;;;;17.07;70.07;101265.06;6005893;28;20479;-65
2022/07/19 04:12:15;;;;;;;16.77;3.80;;;;;;;17.10;68.98;101267.41;6020822;28;20041;-66
2022/07/19 04:15:10;;;;;;;10.33;3.07;;;;;;;17.18;69.23;101275.41;6014815;28;20042;-66
2022/07/19 04:18:06;;;;;;;7.63;3.10;;;;;;;17.20;69.58;101281.44;6015457;28;20034;-65
2022/07/19 04:21:01;;;;;;;10.02;3.28;;;;;;;17.31;69.69;101288.25;6021177;28;20300;-67
2022/07/19 04:23:56;;;;;;;12.20;3.97;;;;;;;17.24;70.00;101286.28;6024011;28;20049;-65
2022/07/19 04:26:52;;;;;;;5.15;2.75;;;;;;;17.64;68.54;101287.91;6024563;28;20027;-65
2022/07/19 04:29:47;;;;;;;7.30;2.77;;;;;;;18.20;66.39;101286.66;6025085;28;20045;-66
2022/07/19 04:32:42;;;;;;;7.87;2.50;;;;;;;18.94;64.56;101277.66;6023889;28;20038;-66
2022/07/19 04:35:38;;;;;;;6.97;2.87;;;;;;;19.26;61.91;101286.34;6021436;28;20625;-66
2022/07/19 04:38:33;;;;;;;8.13;2.90;;;;;;;19.74;61.52;101288.38;6023316;28;20478;-66
2022/07/19 04:41:28;;;;;;;8.50;3.20;;;;;;;20.82;57.56;101285.34;6020778;28;20043;-66
2022/07/19 04:44:23;;;;;;;9.93;2.63;;;;;;;21.27;57.33;101290.16;6024655;28;20062;-65
2022/07/19 04:47:19;;;;;;;7.27;3.07;;;;;;;21.68;55.43;101292.78;6019072;28;20034;-67
2022/07/19 04:50:14;;;;;;;9.90;2.70;;;;;;;21.91;54.34;101293.25;6025312;28;20629;-65
2022/07/19 04:53:10;;;;;;;8.60;3.43;;;;;;;19.87;56.41;101293.88;6025709;28;20041;-66
2022/07/19 04:56:05;;;;;;;8.13;3.10;;;;;;;19.78;57.64;101295.03;6021503;28;20038;-66
2022/07/19 04:59:00;;;;;;;5.15;2.60;;;;;;;20.04;57.31;101292.59;6028926;28;20042;-66
2022/07/19 05:01:56;;;;;;;5.43;2.90;;;;;;;20.42;56.85;101289.63;6021528;28;20471;-66
2022/07/19 05:04:51;;;;;;;8.90;2.70;;;;;;;20.22;56.84;101284.03;6029541;28;20044;-67
2022/07/19 05:07:46;;;;;;;6.93;2.77;;;;;;;21.33;56.21;101284.75;6029802;28;20034;-65
2022/07/19 05:10:42;;;;;;;9.32;2.75;;;;;;;22.40;52.88;101300.97;6017805;28;20280;-65
2022/07/19 05:13:37;;;;;;;5.93;2.90;;;;;;;22.93;50.81;101285.53;6028605;28;20046;-65
2022/07/19 05:16:32;;;;;;;6.87;2.80;;;;;;;23.73;47.45;101284.16;6025937;28;20030;-65
2022/07/19 05:19:28;;;;;;;10.50;2.80;;;;;;;24.33;46.45;101286.19;6020412;28;20030;-66
2022/07/19 05:22:24;;;;;;;4.27;2.50;;;;;;;24.14;46.38;101285.31;6029134;28;20037;-66
2022/07/19 05:25:20;;;;;;;10.15;3.60;;;;;;;24.75;44.44;101285.38;6029903;28;20805;-67
2022/07/19 05:28:15;;;;;;;8.05;2.90;;;;;;;25.48;43.17;101295.41;6029091;28;20070;-66
2022/07/19 05:31:10;;;;;;;10.17;3.33;;;;;;;25.52;43.08;101296.63;6020566;28;20101;-67
2022/07/19 05:34:06;;;;;;;16.33;3.43;;;;;;;23.56;46.33;101290.06;6029553;28;20042;-67
2022/07/19 05:37:01;;;;;;;6.13;3.05;;;;;;;25.30;42.41;101285.41;6018481;28;20034;-65
2022/07/19 05:39:57;;;;;;;7.60;2.87;;;;;;;25.87;41.64;101281.28;6023961;28;20041;-66
2022/07/19 05:42:52;;;;;;;9.55;3.13;;;;;;;24.59;44.39;101299.53;6022217;28;20046;-65
2022/07/19 05:45:47;;;;;;;5.63;2.80;;;;;;;24.14;45.27;101293.44;6026075;28;20038;-66
2022/07/19 05:48:43;;;;;;;6.43;2.47;;;;;;;23.89;44.80;101292.56;6010400;28;20285;-66
2022/07/19 05:51:38;;;;;;;10.80;3.15;;;;;;;23.89;44.78;101286.34;6027732;28;20281;-65
2022/07/19 05:54:33;;;;;;;8.80;2.80;;;;;;;23.72;46.30;101293.31;6022256;28;20066;-65
2022/07/19 05:57:29;;;;;;;7.63;2.93;;;;;;;23.79;45.83;101299.50;6019515;28;20313;-66
2022/07/19 06:00:24;;;;;;;6.97;3.47;;;;;;;25.69;41.87;101287.59;6026597;28;20054;-66
2022/07/19 06:03:19;;;;;;;4.70;2.60;;;;;;;26.58;40.03;101300.19;6025738;28;20089;-65
2022/07/19 06:06:15;;;;;;;8.03;2.80;;;;;;;27.14;38.57;101286.78;6021173;28;20429;-66
2022/07/19 06:09:12;;;;;;;8.07;3.25;;;;;;;26.43;40.33;101310.72;6023897;28;20058;-65
2022/07/19 06:12:07;;;;;;;8.60;2.88;;;;;;;27.06;37.82;101306.22;6028043;28;20066;-66
2022/07/19 06:15:03;;;;;;;11.40;2.83;;;;;;;26.74;38.23;101298.66;6023839;28;20505;-66
2022/07/19 06:17:59;;;;;;;4.68;2.70;;;;;;;28.05;36.12;101298.63;6015717;28;20026;-66
2022/07/19 06:20:54;;;;;;;5.80;2.80;;;;;;;28.48;35.57;101303.44;6021221;28;20057;-66
2022/07/19 06:23:49;;;;;;;8.83;2.90;;;;;;;27.71;35.54;101292.28;6026124;28;20026;-65
2022/07/19 06:26:45;;;;;;;6.05;2.78;;;;;;;25.88;39.98;101296.50;6026187;28;20034;-67
2022/07/19 06:29:40;;;;;;;8.43;3.67;;;;;;;26.33;38.21;101305.03;6023646;28;20034;-65
2022/07/19 06:32:35;;;;;;;5.33;3.20;;;;;;;27.22;36.30;101298.34;6020049;28;20478;-66
2022/07/19 06:35:31;;;;;;;7.47;2.53;;;;;;;27.26;35.35;101294.09;6020395;28;20309;-66
2022/07/19 06:38:26;;;;;;;6.15;3.00;;;;;;;28.14;34.50;101302.59;6026351;28;20058;-65
2022/07/19 06:41:21;;;;;;;7.32;2.67;;;;;;;29.22;33.67;101294.69;6026035;28;20038;-66
2022/07/19 06:44:17;;;;;;;5.03;2.93;;;;;;;29.75;32.82;101304.84;6024912;28;20038;-62
2022/07/19 06:47:12;;;;;;;7.88;2.88;;;;;;;30.20;31.92;101296.25;6020126;28;20281;-64
2022/07/19 06:50:08;;;;;;;8.05;2.78;;;;;;;30.50;31.12;101296.50;6024163;28;20684;-64
2022/07/19 06:53:03;;;;;;;5.85;2.92;;;;;;;29.66;32.04;101305.56;6027218;28;20038;-64
2022/07/19 06:55:59;;;;;;;3.90;2.83;;;;;;;28.13;35.62;101299.03;6024269;28;20031;-64
2022/07/19 06:58:54;;;;;;;7.90;2.80;;;;;;;28.25;34.84;101305.25;6020357;28;20064;-63
2022/07/19 07:01:49;;;;;;;9.83;3.13;;;;;;;28.56;36.96;101295.66;6025445;28;20038;-64
2022/07/19 07:04:45;;;;;;;12.60;3.67;;;;;;;28.30;37.08;101304.50;6016463;28;20485;-66
2022/07/19 07:07:41;;;;;;;7.50;2.90;;;;;;;28.35;36.07;101305.41;6020796;28;20046;-64
2022/07/19 07:10:37;;;;;;;7.28;3.00;;;;;;;28.67;35.93;101302.13;6021654;28;20030;-66
2022/07/19 07:13:32;;;;;;;10.05;2.92;;;;;;;28.34;36.11;101298.31;6026765;28;20042;-65
2022/07/19 07:16:27;;;;;;;5.20;2.80;;;;;;;29.43;34.23;101291.09;6023431;28;20030;-66
2022/07/19 07:19:23;;;;;;;6.67;3.03;;;;;;;30.15;33.49;101293.47;6026447;28;20167;-65
2022/07/19 07:22:18;;;;;;;5.97;2.90;;;;;;;30.36;32.19;101295.31;6024845;28;20269;-66
2022/07/19 07:25:13;;;;;;;8.70;2.83;;;;;;;30.54;31.63;101305.88;6026370;28;20038;-66
2022/07/19 07:28:09;;;;;;;6.18;2.90;;;;;;;29.35;33.06;101299.75;6022043;28;20357;-65
2022/07/19 07:31:04;;;;;;;4.73;2.80;;;;;;;29.97;31.35;101296.63;6021264;28;20034;-66
2022/07/19 07:33:59;;;;;;;8.43;2.80;;;;;;;29.75;32.03;101302.13;6025828;28;20029;-67
2022/07/19 07:36:55;;;;;;;7.40;2.60;;;;;;;28.64;34.53;101292.53;6025471;28;20030;-65
2022/07/19 07:39:50;;;;;;;4.47;2.60;;;;;;;28.14;34.88;101297.97;6014081;28;20053;-66
2022/07/19 07:42:46;;;;;;;6.90;2.60;;;;;;;28.65;33.61;101305.09;6024502;28;20034;-66
2022/07/19 07:45:42;;;;;;;6.90;2.97;;;;;;;28.93;33.12;101304.94;6015938;28;20038;-66
2022/07/19 07:48:37;;;;;;;8.68;2.53;;;;;;;29.06;32.42;101287.34;6026205;28;20277;-65
2022/07/19 07:51:33;;;;;;;6.20;2.73;;;;;;;29.85;29.95;101293.22;6023924;28;20057;-67
2022/07/19 07:54:28;;;;;;;6.17;2.60;;;;;;;30.36;29.38;101286.28;6023666;28;20289;-65
2022/07/19 07:57:23;;;;;;;5.50;2.57;;;;;;;30.43;29.56;101284.16;6015612;28;20389;-66
2022/07/19 08:00:18;;;;;;;15.40;3.20;;;;;;;30.56;30.45;101290.00;6016106;28;20042;-65
2022/07/19 08:03:14;;;;;;;7.07;3.03;;;;;;;30.09;31.62;101289.03;6024489;28;20038;-66
2022/07/19 08:06:10;;;;;;;9.90;2.70;;;;;;;29.91;32.23;101292.19;6017476;28;20143;-65
2022/07/19 08:09:06;;;;;;;14.38;2.53;;;;;;;29.76;31.80;101283.81;6022034;28;20041;-65
2022/07/19 08:12:01;;;;;;;8.75;2.50;;;;;;;30.44;30.61;101285.81;6023976;28;20030;-66
2022/07/19 08:14:56;;;;;;;8.18;2.58;;;;;;;30.36;31.19;101289.00;6025389;28;20121;-65
2022/07/19 08:17:52;;;;;;;11.17;3.07;;;;;;;30.24;30.53;101291.94;6017922;28;20113;-64
2022/07/19 08:20:47;;;;;;;5.77;2.50;;;;;;;30.40;31.34;101290.16;6022131;28;20419;-65
2022/07/19 08:23:42;;;;;;;11.23;2.40;;;;;;;30.87;30.13;101276.47;6025218;28;20301;-66
2022/07/19 08:26:38;;;;;;;4.07;2.65;;;;;;;30.50;30.09;101280.09;6023601;28;20034;-65
2022/07/19 08:29:33;;;;;;;5.80;2.47;;;;;;;30.73;29.99;101280.78;6025037;28;20038;-65
2022/07/19 08:32:29;;;;;;;5.73;2.63;;;;;;;30.88;29.59;101286.31;6024158;28;20038;-66
2022/07/19 08:35:24;;;;;;;5.63;2.47;;;;;;;30.46;29.10;101284.47;6024284;28;20257;-66
2022/07/19 08:38:19;;;;;;;6.27;2.60;;;;;;;30.75;29.93;101275.84;6014680;28;20031;-66
2022/07/19 08:41:15;;;;;;;5.93;2.57;;;;;;;31.03;28.60;101272.75;6021315;28;20073;-65
2022/07/19 08:44:12;;;;;;;7.18;2.42;;;;;;;31.25;27.52;101278.88;6027738;28;20049;-65
2022/07/19 08:47:11;;;;;;;5.38;2.17;;;;;;;31.75;26.56;101269.94;6017592;28;20061;-66
2022/07/19 08:50:08;;;;;;;8.40;3.00;;;;;;;31.16;29.14;101272.25;6024579;28;20041;-65
2022/07/19 08:53:04;;;;;;;3.17;2.13;;;;;;;31.48;27.44;101261.94;6016313;28;20484;-66
2022/07/19 08:56:00;;;;;;;9.80;2.65;;;;;;;31.67;27.01;101263.06;6024555;28;20053;-65
2022/07/19 08:58:55;;;;;;;5.95;2.55;;;;;;;31.89;26.82;101265.56;6024625;28;20042;-65
2022/07/19 09:01:51;;;;;;;3.67;2.20;;;;;;;32.78;25.30;101263.03;6023247;28;20121;-66
2022/07/19 09:05:10;;;;;;;6.50;2.45;;;;;;;31.68;25.73;101269.38;6024608;28;20348;-66
2022/07/19 09:08:09;;;;;;;4.97;2.33;;;;;;;32.12;25.82;101266.97;6025149;28;20038;-66
2022/07/19 09:11:16;;;;;;;5.03;2.60;;;;;;;32.88;25.10;101270.44;6019618;28;20034;-66
2022/07/19 09:14:11;;;;;;;9.05;2.80;;;;;;;32.29;26.84;101267.50;6038783;28;20038;-66
2022/07/19 09:17:12;;;;;;;4.43;2.43;;;;;;;31.76;27.26;101266.94;6020890;28;20034;-66
2022/07/19 09:20:08;;;;;;;6.15;2.72;;;;;;;32.09;26.71;101253.81;6023417;28;20038;-66
2022/07/19 09:23:04;;;;;;;4.50;2.00;;;;;;;32.60;25.89;101263.63;6024470;28;20055;-66
2022/07/19 09:26:02;;;;;;;4.03;2.60;;;;;;;32.42;27.15;101249.63;6021464;28;20030;-65
2022/07/19 09:29:16;;;;;;;5.25;2.33;;;;;;;32.11;28.07;101251.59;6025417;28;20043;-65
2022/07/19 09:32:17;;;;;;;7.43;2.60;;;;;;;32.55;26.72;101252.66;6022713;28;20541;-66
2022/07/19 09:35:12;;;;;;;5.25;2.30;;;;;;;32.42;27.25;101250.47;6023834;28;20030;-66
2022/07/19 09:38:19;;;;;;;5.83;2.40;;;;;;;32.69;25.90;101237.25;6016732;28;20500;-67
2022/07/19 09:41:17;;;;;;;5.10;2.72;;;;;;;31.91;25.72;101229.63;6026272;28;20030;-66
2022/07/19 09:44:22;;;;;;;5.68;2.22;;;;;;;32.21;24.27;101237.84;6027438;28;20450;-67
2022/07/19 09:47:18;;;;;;;;;;;;;;;32.41;23.70;101235.06;6022797;28;20045;-66
2022/07/19 09:50:16;;;;;;;7.70;2.03;;;;;;;32.22;24.74;101237.59;6025743;28;20277;-66
2022/07/19 09:53:12;;;;;;;6.22;2.40;;;;;;;32.44;23.64;101229.03;6027580;28;20466;-67
2022/07/19 09:56:09;;;;;;;6.90;2.22;;;;;;;32.80;23.42;101225.13;6024864;28;20034;-66
2022/07/19 09:59:06;;;;;;;4.50;1.85;;;;;;;33.07;22.47;101232.16;6024093;28;20545;-66
2022/07/19 10:02:02;;;;;;;6.05;2.22;;;;;;;33.38;22.83;101222.63;6026692;28;20050;-66
2022/07/19 10:04:58;;;;;;;4.93;2.30;;;;;;;33.64;23.28;101220.56;6041112;28;20053;-65
2022/07/19 10:07:54;;;;;;;4.88;2.20;;;;;;;33.65;23.08;101227.72;6024524;28;20026;-67
2022/07/19 10:10:50;;;;;;;4.10;2.35;;;;;;;33.21;23.87;101219.44;6019106;28;20046;-66
2022/07/19 10:13:45;;;;;;;6.30;2.40;;;;;;;33.76;22.69;101212.72;6022060;28;20090;-66
2022/07/19 10:16:52;;;;;;;3.58;1.90;;;;;;;34.11;21.44;101216.03;6027003;28;20046;-67
2022/07/19 10:19:48;;;;;;;4.05;1.80;;;;;;;34.31;21.03;101209.50;6027683;28;20042;-67
2022/07/19 10:22:45;;;;;;;4.47;2.10;;;;;;;34.21;21.35;101192.25;6025814;28;20034;-68
2022/07/19 10:25:46;;;;;;;6.65;2.20;;;;;;;34.13;21.38;101203.91;6026659;28;20193;-67
2022/07/19 10:28:41;;;;;;;4.63;1.80;;;;;;;33.81;20.88;101187.94;6026471;28;20057;-64
2022/07/19 10:31:38;;;;;;;4.50;1.83;;;;;;;34.04;20.77;101196.25;6026274;28;20469;-65
2022/07/19 10:34:33;;;;;;;3.58;1.60;;;;;;;33.70;20.62;101184.44;6018261;28;20121;-67
2022/07/19 10:37:42;;;;;;;5.78;2.05;;;;;;;33.75;20.92;101200.09;6023634;28;20088;-66
2022/07/19 10:40:50;;;;;;;5.10;1.83;;;;;;;34.25;20.47;101196.06;6011612;28;20035;-66
2022/07/19 10:44:07;;;;;;;4.00;2.08;;;;;;;34.69;20.01;101180.97;6020379;28;20070;-67
2022/07/19 10:47:02;;;;;;;4.57;1.70;;;;;;;34.57;19.02;101182.53;6018408;28;20034;-67
2022/07/19 10:50:06;;;;;;;3.03;1.70;;;;;;;34.29;19.22;101189.69;6014084;28;20086;-67
2022/07/19 10:53:01;;;;;;;4.07;1.60;;;;;;;34.50;18.63;101184.75;6015947;28;20038;-66
2022/07/19 10:56:15;;;;;;;4.47;1.80;;;;;;;34.47;19.40;101191.69;6021380;28;20478;-67
2022/07/19 10:59:12;;;;;;;4.72;1.67;;;;;;;34.17;19.29;101180.16;6015574;28;20474;-67
2022/07/19 11:02:21;;;;;;;3.05;1.65;;;;;;;34.02;19.32;101172.88;6020166;28;20030;-66
2022/07/19 11:05:28;;;;;;;4.20;1.60;;;;;;;34.72;18.48;101171.28;6022533;28;20434;-67
2022/07/19 11:08:34;;;;;;;3.80;1.52;;;;;;;34.82;18.42;101154.59;6019759;28;20045;-68
2022/07/19 11:11:29;;;;;;;3.78;1.70;;;;;;;35.34;18.35;101158.28;6023687;28;20038;-66
2022/07/19 11:14:24;;;;;;;4.97;1.37;;;;;;;35.37;16.46;101154.94;6017510;28;20053;-65
2022/07/19 11:17:20;;;;;;;3.07;1.37;;;;;;;35.34;16.13;101156.34;6013919;28;20549;-66
2022/07/19 11:20:17;;;;;;;3.50;1.37;;;;;;;35.68;16.19;101151.41;6013935;28;20093;-67
2022/07/19 11:23:17;;;;;;;4.20;1.42;;;;;;;36.13;16.28;101137.91;6013558;28;20030;-66
2022/07/19 11:26:20;;;;;;;3.03;1.70;;;;;;;35.71;16.71;101125.13;6011679;28;20045;-66
2022/07/19 11:29:15;;;;;;;4.03;1.63;;;;;;;35.32;16.28;101135.69;6020092;28;20172;-67
2022/07/19 11:32:17;;;;;;;3.47;1.63;;;;;;;36.25;15.42;101133.53;6013277;28;20390;-67
2022/07/19 11:35:14;;;;;;;2.80;1.70;;;;;;;35.46;15.90;101126.38;6013965;28;20054;-66
2022/07/19 11:38:10;;;;;;;3.67;2.13;;;;;;;35.48;16.51;101131.56;6013390;28;20171;-67
2022/07/19 11:41:12;;;;;;;3.80;1.80;;;;;;;36.32;16.70;101122.84;6012604;28;20027;-66
2022/07/19 11:44:08;;;;;;;3.80;2.13;;;;;;;36.31;15.47;101110.16;6016572;28;20687;-65
2022/07/19 11:47:03;;;;;;;7.18;2.38;;;;;;;36.04;16.42;101115.69;6005568;28;20049;-64
2022/07/19 11:50:03;;;;;;;4.87;2.20;;;;;;;36.19;16.44;101111.81;6017491;28;20032;-65
2022/07/19 11:52:59;;;;;;;6.32;2.05;;;;;;;35.93;16.49;101118.94;6023323;28;20273;-67
2022/07/19 11:55:55;;;;;;;3.92;1.73;;;;;;;36.22;16.79;101114.78;6018037;28;20430;-67
2022/07/19 11:58:52;;;;;;;3.28;1.90;;;;;;;36.80;16.55;101094.78;6011634;28;20034;-67
2022/07/19 12:01:47;;;;;;;6.50;2.45;;;;;;;36.30;16.35;101103.00;6021015;28;20069;-66
2022/07/19 12:04:43;;;;;;;5.32;2.65;;;;;;;37.03;14.41;101109.47;6022892;28;20476;-67
2022/07/19 12:07:45;;;;;;;6.40;2.80;;;;;;;37.20;14.74;101109.59;6021012;28;20042;-66
2022/07/19 12:10:46;;;;;;;5.00;2.10;;;;;;;37.61;14.51;101104.72;6022525;28;20669;-66
2022/07/19 12:13:41;;;;;;;8.40;3.03;;;;;;;36.34;15.14;101103.19;6014482;28;20053;-64
2022/07/19 12:16:36;;;;;;;6.40;2.80;;;;;;;36.62;16.63;101093.78;6015839;28;20030;-67
2022/07/19 12:19:31;;;;;;;6.50;2.60;;;;;;;36.63;15.26;101100.13;6023953;28;20034;-65
2022/07/19 12:22:27;;;;;;;8.45;3.03;;;;;;;36.72;15.34;101098.28;6008565;28;20470;-66
2022/07/19 12:25:36;;;;;;;4.95;2.72;;;;;;;36.40;15.41;101090.91;6014036;28;20034;-65
2022/07/19 12:28:31;;;;;;;6.82;3.17;;;;;;;36.46;15.74;101072.28;6014103;28;20054;-66
2022/07/19 12:31:26;;;;;;;7.20;3.10;;;;;;;37.00;15.15;101080.47;6032186;28;20037;-65
2022/07/19 12:34:22;;;;;;;6.40;2.60;;;;;;;37.29;14.54;101078.09;6022658;28;20042;-65
2022/07/19 12:37:42;;;;;;;4.60;2.45;;;;;;;38.03;15.00;101072.81;6013006;28;20034;-65
2022/07/19 12:40:42;;;;;;;5.53;2.45;;;;;;;37.70;15.17;101075.09;6012870;28;20088;-65
2022/07/19 12:43:37;;;;;;;6.72;2.60;;;;;;;37.54;15.57;101069.16;6023306;28;20034;-65
2022/07/19 12:46:32;;;;;;;3.95;2.30;;;;;;;37.49;15.15;101069.28;6028777;28;20445;-65
2022/07/19 12:49:47;;;;;;;6.97;3.70;;;;;;;36.71;16.15;101049.63;6024760;28;20039;-66
2022/07/19 12:52:43;;;;;;;11.38;4.00;;;;;;;36.98;16.16;101058.66;6023047;28;20516;-65
2022/07/19 12:55:40;;;;;;;12.13;3.10;;;;;;;37.65;15.08;101063.34;6023334;28;20042;-65
2022/07/19 13:01:49;;;;;;;15.23;3.15;;;;;;;37.62;15.60;101048.19;6019872;28;20034;-65
2022/07/19 13:04:45;;;;;;;6.00;2.88;;;;;;;37.73;15.03;101054.25;6024275;28;20038;-65
2022/07/19 13:07:40;;;;;;;8.63;3.13;;;;;;;37.06;15.06;101059.03;6025165;28;20053;-66
2022/07/19 13:10:36;;;;;;;10.65;3.65;;;;;;;36.72;15.96;101054.03;6022999;28;20034;-66
2022/07/19 13:13:31;;;;;;;6.73;2.80;;;;;;;36.47;16.06;101051.81;6024242;28;20034;-65
2022/07/19 13:16:26;;;;;;;6.85;2.95;;;;;;;36.96;15.57;101041.53;6028430;28;20265;-65
2022/07/19 13:19:22;;;;;;;7.97;3.40;;;;;;;37.79;14.90;101050.22;6028756;28;20034;-65
2022/07/19 13:22:17;;;;;;;11.98;3.13;;;;;;;38.18;14.62;101030.00;6022112;28;20489;-65
2022/07/19 13:25:13;;;;;;;6.05;3.00;;;;;;;38.62;14.16;101019.47;6027181;28;20038;-65
2022/07/19 13:28:09;;;;;;;8.80;3.45;;;;;;;39.16;13.93;101014.41;6023347;28;20541;-66
2022/07/19 13:31:04;;;;;;;7.80;2.65;;;;;;;39.24;13.41;101021.91;6026395;28;20034;-65
2022/07/19 13:33:59;;;;;;;5.07;2.90;;;;;;;38.72;12.88;101019.16;6018129;28;20045;-65
2022/07/19 13:36:55;;;;;;;6.03;2.73;;;;;;;38.07;13.26;101010.91;6024551;28;20619;-66
2022/07/19 13:39:50;;;;;;;6.40;3.30;;;;;;;37.48;13.66;101023.34;6025525;28;20069;-66
2022/07/19 13:42:45;;;;;;;6.77;2.97;;;;;;;37.85;13.93;101012.91;6020849;28;20030;-65